Latest Weather Observations for Hindmarsh Island

IDS60901

Issued at 11:01 am CDT Tuesday 19 February 2019 (issued every 10 minutes, with the page automatically refreshed every 10 minutes)

About weather observations | Map of Adelaide area stations | Latest observations for Adelaide area | Other Formats
Station Details ID: 023894 Name: HINDMARSH ISLAND AWS Lat: -35.52 Lon: 138.82 Height: 11.0 m
Data from the previous 72 hours. | See also: Recent months at Hindmarsh Island
Date/Time
CDT
Temp
°C
App
Temp
°C
Dew
Point
°C
Rel
Hum
%
Delta-T
°C
Wind Press
QNH
hPa
Press
MSL
hPa
Rain since
9am
mm
Dir  Spd
km/h
Gust
km/h
Spd
kts
Gust
kts
19/11:00am 19.8 14.5 9.7 52 5.4 SSW 28 35 15 19 1016.4 1016.4 0.0
19/10:30am 19.5 14.1 7.9 47 6.0 SSW 26 32 14 17 1016.2 1016.2 0.0
19/10:00am 19.2 14.5 9.1 52 5.3 SSW 24 30 13 16 1016.2 1016.2 0.0
19/09:30am 19.1 14.7 9.0 52 5.3 S 22 28 12 15 1016.0 1016.0 0.0
19/09:00am 18.4 13.6 8.7 53 5.0 SSW 24 32 13 17 1015.8 1015.8 0.0
19/08:30am 18.0 12.6 8.0 52 5.1 SSW 26 33 14 18 1015.5 1015.5 0.0
19/08:00am 17.7 11.2 8.0 53 4.9 SSW 32 39 17 21 1015.2 1015.1 0.0
19/07:30am 17.7 12.2 9.3 58 4.4 SSW 28 37 15 20 1014.8 1014.7 0.0
19/07:00am 17.5 11.5 8.6 56 4.6 SSW 30 35 16 19 1014.5 1014.4 0.0
19/06:30am 17.4 11.0 8.5 56 4.6 SSW 32 39 17 21 1014.2 1014.1 0.0
19/06:00am 17.5 11.5 8.6 56 4.6 SSW 30 39 16 21 1014.1 1014.0 0.0
19/05:30am 17.6 10.4 9.2 58 4.4 SSW 37 46 20 25 1013.9 1013.8 0.0
19/05:00am 17.6 11.5 9.8 60 4.1 SSW 32 39 17 21 1013.8 1013.7 0.0
19/04:30am 17.6 11.6 8.7 56 4.6 SW 30 39 16 21 1013.8 1013.7 0.0
19/04:19am 17.5 11.8 8.4 55 4.7 SW 28 46 15 25 1013.9 1013.8 0.0
19/04:00am 17.7 11.2 9.1 57 4.5 SSW 33 44 18 24 1013.9 1013.8 0.0
19/03:30am 17.5 10.9 9.9 61 4.0 SSW 35 44 19 24 1013.9 1013.8 0.0
19/03:00am 17.7 11.0 9.6 59 4.3 SSW 35 41 19 22 1013.8 1013.7 0.0
19/02:30am 17.6 11.0 8.7 56 4.6 SSW 33 43 18 23 1014.0 1013.9 0.0
19/02:00am 17.7 11.4 9.6 59 4.3 SSW 33 43 18 23 1014.3 1014.2 0.0
19/01:30am 17.9 11.7 10.0 60 4.2 SSW 33 41 18 22 1014.5 1014.4 0.0
19/01:00am 17.8 11.0 9.2 57 4.5 SSW 35 44 19 24 1014.5 1014.4 0.0
19/12:30am 17.8 12.0 9.4 58 4.4 SSW 30 35 16 19 1014.6 1014.5 0.0
19/12:00am 17.8 12.1 9.7 59 4.3 SSW 30 39 16 21 1014.5 1014.4 0.0
 
Date/Time
CDT
Temp
°C
App
Temp
°C
Dew
Point
°C
Rel
Hum
%
Delta-T
°C
Wind Press
QNH
hPa
Press
MSL
hPa
Rain since
9am
mm
Dir  Spd
km/h
Gust
km/h
Spd
kts
Gust
kts
18/11:30pm 17.5 11.9 10.1 62 3.9 SSW 30 37 16 20 1014.6 1014.5 0.0
18/11:00pm 17.6 11.4 11.4 67 3.4 SSW 35 43 19 23 1014.4 1014.3 0.0
18/10:30pm 17.9 11.1 10.8 63 3.8 SSW 37 43 20 23 1014.3 1014.2 0.0
18/10:00pm 18.0 12.1 10.4 61 4.1 SSW 32 39 17 21 1014.3 1014.2 0.0
18/09:30pm 18.1 12.0 10.5 61 4.1 SSW 33 43 18 23 1013.9 1013.8 0.0
18/09:00pm 18.0 12.4 10.1 60 4.2 SSW 30 35 16 19 1013.8 1013.7 0.0
18/08:30pm 18.0 11.8 10.1 60 4.2 SSW 33 41 18 22 1013.5 1013.4 0.0
18/08:00pm 17.9 11.4 10.5 62 4.0 SSW 35 41 19 22 1013.1 1013.0 0.0
18/07:30pm 18.2 10.9 10.1 59 4.3 SSW 39 46 21 25 1012.9 1012.8 0.0
18/07:00pm 19.1 12.6 11.7 62 4.1 SSW 37 44 20 24 1012.7 1012.6 0.0
18/06:30pm 19.1 11.5 11.9 63 4.0 SSW 43 48 23 26 1012.4 1012.3 0.0
18/06:00pm 19.6 13.5 11.6 60 4.4 SW 35 43 19 23 1012.1 1012.0 0.0
18/05:30pm 20.4 13.6 10.5 53 5.4 SSW 37 46 20 25 1012.0 1011.9 0.0
18/05:00pm 20.0 13.3 11.0 56 4.9 SSW 37 46 20 25 1011.8 1011.7 0.0
18/04:30pm 20.5 13.2 10.3 52 5.5 SSW 39 48 21 26 1011.6 1011.5 0.0
18/04:00pm 20.0 14.1 11.2 57 4.8 SW 33 41 18 22 1011.5 1011.4 0.0
18/03:30pm 21.0 15.1 10.5 51 5.7 SSW 32 41 17 22 1011.7 1011.6 0.0
18/03:00pm 20.8 13.9 10.3 51 5.7 SSW 37 46 20 25 1011.5 1011.4 0.0
18/02:30pm 19.9 13.4 11.7 59 4.5 SSW 37 44 20 24 1011.4 1011.3 0.0
18/02:00pm 21.0 15.2 10.8 52 5.6 SSW 32 39 17 21 1011.4 1011.3 0.0
18/01:30pm 19.9 14.2 11.1 57 4.8 SSW 32 37 17 20 1011.7 1011.6 0.0
18/01:00pm 19.1 12.9 11.4 61 4.2 SSW 35 43 19 23 1011.6 1011.5 0.0
18/12:30pm 19.9 14.1 11.4 58 4.7 SW 33 41 18 22 1011.3 1011.2 0.0
18/12:00pm 20.1 13.8 11.1 56 4.9 SSW 35 41 19 22 1011.4 1011.3 0.0
18/11:30am 19.7 13.2 11.7 60 4.4 SSW 37 43 20 23 1011.7 1011.6 0.0
18/11:00am 19.7 14.3 12.2 62 4.2 SSW 32 39 17 21 1011.6 1011.5 0.0
18/10:30am 19.7 14.2 12.0 61 4.3 SSW 32 37 17 20 1011.3 1011.2 0.0
18/10:00am 19.1 13.6 12.6 66 3.6 S 33 41 18 22 1010.6 1010.5 0.0
18/09:30am 18.4 13.3 11.9 66 3.6 S 30 39 16 21 1010.3 1010.2 0.0
18/09:00am 18.2 13.3 12.4 69 3.2 S 30 35 16 19 1010.0 1009.9 0.0
18/08:30am 17.9 12.1 12.6 71 3.0 S 35 39 19 21 1010.1 1010.0 0.0
18/08:00am 17.8 11.7 12.9 73 2.7 SSW 37 43 20 23 1009.4 1009.3 0.0
18/07:30am 18.3 12.9 14.0 76 2.5 SSW 35 41 19 22 1009.6 1009.5 0.0
18/07:00am 18.1 13.2 13.8 76 2.4 S 32 39 17 21 1009.2 1009.1 0.0
18/06:30am 18.3 13.7 13.6 74 2.7 S 30 35 16 19 1009.0 1008.9 0.0
18/06:00am 18.4 12.7 14.1 76 2.5 S 37 43 20 23 1008.3 1008.2 0.0
18/05:30am 18.8 14.2 15.1 79 2.2 S 33 37 18 20 1008.1 1008.0 0.0
18/05:00am 19.0 14.1 15.3 79 2.2 S 35 43 19 23 1007.7 1007.6 0.0
18/04:30am 19.0 14.5 15.3 79 2.2 S 33 39 18 21 1007.8 1007.7 0.0
18/04:00am 19.0 15.5 15.5 80 2.1 S 28 35 15 19 1007.5 1007.4 0.0
18/03:30am 19.4 16.1 16.1 81 2.0 S 28 32 15 17 1007.7 1007.6 0.0
18/03:00am 19.2 15.8 15.9 81 2.0 S 28 35 15 19 1007.1 1007.0 0.0
18/02:30am 19.5 16.6 16.2 81 2.0 S 26 32 14 17 1007.3 1007.2 0.0
18/02:00am 19.7 15.7 16.2 80 2.1 S 32 37 17 20 1007.9 1007.8 0.0
18/01:30am 19.8 15.2 16.1 79 2.2 SSW 35 43 19 23 1008.4 1008.3 0.0
18/01:00am 20.5 17.1 16.7 79 2.3 SSW 30 35 16 19 1007.8 1007.7 0.0
18/12:30am 20.1 17.5 15.9 77 2.5 SSW 24 32 13 17 1008.1 1008.0 0.0
18/12:00am 20.2 17.9 16.6 80 2.2 SSW 24 30 13 16 1008.0 1007.9 0.0
 
Date/Time
CDT
Temp
°C
App
Temp
°C
Dew
Point
°C
Rel
Hum
%
Delta-T
°C
Wind Press
QNH
hPa
Press
MSL
hPa
Rain since
9am
mm
Dir  Spd
km/h
Gust
km/h
Spd
kts
Gust
kts
17/11:30pm 20.4 20.2 16.8 80 2.2 SW 13 17 7 9 1007.6 1007.5 0.0
17/11:00pm 20.2 21.1 16.2 78 2.4 WSW 6 11 3 6 1007.8 1007.7 0.0
17/10:30pm 20.3 22.0 16.3 78 2.4 N 2 11 1 6 1007.6 1007.5 0.0
17/10:00pm 20.8 21.3 16.6 77 2.5 SSE 9 15 5 8 1007.9 1007.8 0.0
17/09:30pm 21.0 20.8 16.8 77 2.6 SSW 13 17 7 9 1008.2 1008.1 0.0
17/09:00pm 21.1 20.9 16.7 76 2.7 SSW 13 19 7 10 1007.9 1007.8 0.0
17/08:30pm 21.0 21.2 15.8 72 3.1 SW 9 13 5 7 1007.7 1007.6 0.0
17/08:00pm 21.3 21.9 15.8 71 3.3 SE 7 11 4 6 1007.9 1007.8 0.0
17/07:30pm 21.7 20.1 16.4 72 3.2 S 20 26 11 14 1008.2 1008.1 0.0
17/07:00pm 22.6 21.9 16.4 68 3.8 SW 15 24 8 13 1008.0 1007.9 0.0
17/06:30pm 22.9 20.5 16.4 67 4.0 SW 24 33 13 18 1008.0 1007.9 0.0
17/06:00pm 25.3 24.7 16.7 59 5.3 SSW 15 17 8 9 1007.6 1007.5 0.0
17/05:30pm 27.8 26.7 14.4 43 8.1 WSW 13 24 7 13 1007.3 1007.2 0.0
17/05:00pm 29.9 29.2 11.9 33 10.5 SSE 7 7 4 4 1007.1 1007.0 0.0
17/04:30pm 32.2 29.6 7.8 22 13.5 NE 11 17 6 9 1007.3 1007.2 0.0
17/04:00pm 31.9 27.6 5.4 19 14.0 NNE 17 20 9 11 1007.4 1007.3 0.0
17/03:30pm 31.7 27.6 6.0 20 13.8 NNE 17 24 9 13 1007.8 1007.7 0.0
17/03:00pm 31.5 27.6 7.2 22 13.2 NNE 17 26 9 14 1008.4 1008.3 0.0
17/02:30pm 30.8 26.9 8.5 25 12.4 NE 19 26 10 14 1009.0 1008.9 0.0
17/02:00pm 29.5 24.9 5.6 22 12.5 NE 19 26 10 14 1009.9 1009.8 0.0
17/01:30pm 27.7 22.7 4.7 23 11.8 NE 20 24 11 13 1010.6 1010.5 0.0
17/01:00pm 27.3 23.0 9.2 32 10.0 NNE 22 28 12 15 1011.0 1010.9 0.0
17/12:30pm 27.0 25.7 12.6 41 8.4 ENE 11 20 6 11 1011.7 1011.6 0.0
17/12:00pm 22.3 22.3 15.2 64 4.2 SE 9 13 5 7 1012.6 1012.5 0.0
17/11:30am 22.2 20.7 15.3 65 4.1 S 17 19 9 10 1013.7 1013.6 0.0
17/11:00am 23.0 22.9 16.1 65 4.2 SSE 11 15 6 8 1013.6 1013.5 0.0
17/10:30am 21.4 22.1 16.1 72 3.2 SSE 7 9 4 5 1013.8 1013.7 0.0
17/10:00am 20.3 21.2 16.7 80 2.2 SSW 7 9 4 5 1014.1 1014.0 0.0
17/09:30am 19.4 21.4 16.1 81 2.0 CALM 0 0 0 0 1013.9 1013.8 0.0
17/09:00am 18.5 20.1 15.0 80 2.0 CALM 0 0 0 0 1013.7 1013.6 0.0
17/08:30am 17.2 17.2 13.7 80 2.0 W 6 7 3 4 1013.9 1013.8 0.0
17/08:00am 16.1 15.6 12.8 81 1.8 N 7 9 4 5 1013.0 1012.9 0.0
17/07:30am 15.8 15.3 12.7 82 1.7 N 7 9 4 5 1013.3 1013.2 0.0
17/07:00am 15.5 15.2 12.6 83 1.6 NNE 6 7 3 4 1012.9 1012.8 0.0
17/06:30am 15.5 15.0 12.8 84 1.5 N 7 9 4 5 1012.7 1012.6 0.0
17/06:00am 15.2 14.3 12.7 85 1.4 N 9 11 5 6 1012.5 1012.4 0.0
17/05:30am 15.9 15.3 13.6 86 1.3 N 9 11 5 6 1012.6 1012.5 0.0
17/05:00am 14.9 14.4 12.6 86 1.3 N 7 11 4 6 1012.4 1012.3 0.0
17/04:30am 15.5 15.2 13.2 86 1.3 NNW 7 9 4 5 1012.5 1012.4 0.0
17/04:00am 16.6 16.8 14.1 85 1.4 N 6 7 3 4 1012.3 1012.2 0.0
17/03:30am 16.5 16.4 14.0 85 1.4 NE 7 11 4 6 1012.3 1012.2 0.0
17/03:00am 16.5 17.8 14.0 85 1.4 CALM 0 0 0 0 1013.0 1012.9 0.0
17/02:30am 16.3 16.2 14.0 86 1.3 WSW 7 9 4 5 1013.7 1013.6 0.0
17/02:00am 16.3 16.2 14.0 86 1.3 NNW 7 9 4 5 1013.6 1013.5 0.0
17/01:30am 16.0 15.4 13.5 85 1.4 N 9 11 5 6 1013.9 1013.8 0.0
17/01:00am 16.6 16.5 13.9 84 1.5 NW 7 9 4 5 1014.5 1014.4 0.0
17/12:30am 17.1 17.1 14.2 83 1.7 N 7 9 4 5 1014.8 1014.7 0.0
17/12:00am 17.9 18.4 15.0 83 1.7 SSW 6 9 3 5 1015.2 1015.1 0.0
 
Date/Time
CDT
Temp
°C
App
Temp
°C
Dew
Point
°C
Rel
Hum
%
Delta-T
°C
Wind Press
QNH
hPa
Press
MSL
hPa
Rain since
9am
mm
Dir  Spd
km/h
Gust
km/h
Spd
kts
Gust
kts
16/11:30pm 18.2 17.8 15.3 83 1.7 SSW 11 13 6 7 1015.8 1015.8 0.0
16/11:00pm 18.2 17.8 15.3 83 1.7 SSW 11 11 6 6 1016.3 1016.3 0.0
16/10:30pm 18.1 18.3 14.8 81 1.9 S 7 9 4 5 1016.2 1016.2 0.0
16/10:00pm 18.1 18.4 14.6 80 2.0 S 6 9 3 5 1016.1 1016.1 0.0
16/09:30pm 18.5 17.7 15.0 80 2.0 SSW 13 15 7 8 1016.1 1016.1 0.0
16/09:00pm 18.6 17.8 15.1 80 2.0 S 13 15 7 8 1016.0 1016.0 0.0
16/08:30pm 18.7 17.5 15.0 79 2.2 S 15 17 8 9 1015.8 1015.8 0.0
16/08:00pm 19.0 18.1 14.9 77 2.4 SSW 13 17 7 9 1015.6 1015.6 0.0
16/07:30pm 19.7 18.2 15.4 76 2.5 SSW 17 20 9 11 1015.5 1015.5 0.0
16/07:00pm 20.3 18.2 15.1 72 3.1 SSW 20 24 11 13 1015.5 1015.5 0.0
16/06:30pm 20.4 18.3 15.2 72 3.1 S 20 24 11 13 1015.5 1015.5 0.0
16/06:00pm 21.0 18.3 15.5 71 3.3 S 24 28 13 15 1015.6 1015.6 0.0
16/05:30pm 21.3 18.6 15.6 70 3.4 SSW 24 30 13 16 1015.6 1015.6 0.0
16/05:00pm 21.4 19.0 15.5 69 3.5 S 22 26 12 14 1015.6 1015.6 0.0
16/04:30pm 21.6 18.4 15.4 68 3.7 S 26 30 14 16 1015.7 1015.7 0.0
16/04:00pm 22.0 19.9 14.6 63 4.4 S 19 20 10 11 1015.6 1015.6 0.0
16/03:30pm 22.4 20.9 16.2 68 3.7 S 19 22 10 12 1016.0 1016.0 0.0
16/03:00pm 21.7 19.6 15.3 67 3.8 S 20 24 11 13 1016.5 1016.5 0.0
16/02:30pm 21.3 18.9 14.5 65 4.0 S 20 24 11 13 1016.8 1016.8 0.0
16/02:00pm 21.4 19.0 14.3 64 4.1 SSE 20 26 11 14 1017.3 1017.3 0.0
16/01:30pm 21.5 18.3 15.3 68 3.7 SSE 26 30 14 16 1017.4 1017.4 0.0
16/01:00pm 20.9 17.4 14.5 67 3.7 SSE 26 30 14 16 1017.9 1017.9 0.0
16/12:30pm 21.5 19.3 14.9 66 3.9 SSE 20 26 11 14 1018.2 1018.2 0.0
16/12:00pm 20.9 19.2 13.6 63 4.2 SSE 15 19 8 10 1018.5 1018.5 0.0
16/11:30am 20.5 18.8 13.7 65 3.9 SSE 15 17 8 9 1019.0 1019.0 0.0

Latest Capital City Observations: Canberra | Sydney | Melbourne | Brisbane | Adelaide | Perth | Hobart | Darwin

Other formats

Comma delimited format used in spreadsheet applications
http://www.bom.gov.au/fwo/IDS60901/IDS60901.94677.axf

JavaScript Object Notation format (JSON) in row-major order
http://www.bom.gov.au/fwo/IDS60901/IDS60901.94677.json

Data quality

Most of these data are generated automatically and are frequently updated. Quality checks on data are not normally performed. It is possible for incorrect values to appear. Refer to information at About Latest Weather Observations and please check the disclaimer before using these data.